createdAt,value
2023-01-23T00:01:13.273Z,0.78
2023-01-23T00:03:40.092Z,0.80
2023-01-23T00:06:15.045Z,0.85
2023-01-23T00:08:43.240Z,0.83
2023-01-23T00:11:14.501Z,0.81
2023-01-23T00:13:41.242Z,0.77
2023-01-23T00:16:10.682Z,0.78
2023-01-23T00:18:37.397Z,0.80
2023-01-23T00:21:08.916Z,0.78
2023-01-23T00:23:36.499Z,0.74
2023-01-23T00:26:04.233Z,0.71
2023-01-23T00:28:30.811Z,0.69
2023-01-23T00:31:04.892Z,0.68
2023-01-23T00:33:31.902Z,0.70
2023-01-23T00:35:59.895Z,0.71
2023-01-23T00:38:26.722Z,0.71
2023-01-23T00:40:54.607Z,0.66
2023-01-23T00:43:22.294Z,0.68
2023-01-23T00:45:48.844Z,0.70
2023-01-23T00:48:15.614Z,0.78
2023-01-23T00:50:42.216Z,0.90
2023-01-23T00:53:10.467Z,1.04
2023-01-23T00:55:37.064Z,1.15
2023-01-23T00:58:03.665Z,1.33
2023-01-23T01:00:30.332Z,1.49
2023-01-23T01:02:56.977Z,1.62
2023-01-23T01:05:23.571Z,1.75
2023-01-23T01:07:50.120Z,1.85
2023-01-23T01:10:16.997Z,1.91
2023-01-23T01:12:43.763Z,2.00
2023-01-23T01:15:11.075Z,2.10
2023-01-23T01:17:37.632Z,2.20
2023-01-23T01:20:05.782Z,2.26
2023-01-23T01:22:32.728Z,2.37
2023-01-23T01:24:59.362Z,2.50
2023-01-23T01:27:25.956Z,2.58
2023-01-23T01:29:52.748Z,2.66
2023-01-23T01:32:19.495Z,2.74
2023-01-23T01:34:46.071Z,2.79
2023-01-23T01:37:12.687Z,2.82
2023-01-23T01:39:39.279Z,2.85
2023-01-23T01:42:05.912Z,2.88
2023-01-23T01:44:53.934Z,2.93
2023-01-23T01:47:20.496Z,2.93
2023-01-23T01:49:47.843Z,2.97
2023-01-23T01:52:15.794Z,3.01
2023-01-23T01:54:48.360Z,3.03
2023-01-23T01:57:14.863Z,3.04
2023-01-23T01:59:54.411Z,3.06
2023-01-23T02:02:31.638Z,3.08
2023-01-23T02:05:03.609Z,3.11
2023-01-23T02:07:57.274Z,3.11
2023-01-23T02:10:24.340Z,3.11
2023-01-23T02:12:52.573Z,3.09
2023-01-23T02:15:21.697Z,3.09
2023-01-23T02:17:51.621Z,3.13
2023-01-23T02:20:24.931Z,3.12
2023-01-23T02:23:02.174Z,3.18
2023-01-23T02:25:34.857Z,3.21
2023-01-23T02:28:02.367Z,3.24
2023-01-23T02:30:29.049Z,3.30
2023-01-23T02:32:55.632Z,3.33
2023-01-23T02:35:28.077Z,3.38
2023-01-23T02:37:59.964Z,3.42
2023-01-23T02:40:36.672Z,3.45
2023-01-23T02:43:05.876Z,3.47
2023-01-23T02:45:33.459Z,3.48
2023-01-23T02:48:01.874Z,3.50
2023-01-23T02:50:29.205Z,3.51
2023-01-23T02:52:58.146Z,3.51
2023-01-23T02:55:33.086Z,3.51
2023-01-23T02:58:19.743Z,3.53
2023-01-23T03:00:47.231Z,3.51
2023-01-23T03:03:16.000Z,3.52
2023-01-23T03:05:42.719Z,3.53
2023-01-23T03:08:09.460Z,3.54
2023-01-23T03:10:36.186Z,3.53
2023-01-23T03:13:04.646Z,3.56
2023-01-23T03:15:33.355Z,3.60
2023-01-23T03:18:00.438Z,3.62
2023-01-23T03:20:28.304Z,3.62
2023-01-23T03:22:55.064Z,3.60
2023-01-23T03:25:22.051Z,3.61
2023-01-23T03:27:48.918Z,3.63
2023-01-23T03:30:17.881Z,3.67
2023-01-23T03:32:46.102Z,3.71
2023-01-23T03:35:16.791Z,3.71
2023-01-23T03:37:44.327Z,3.74
2023-01-23T03:40:41.275Z,3.78
2023-01-23T03:43:08.268Z,3.78
2023-01-23T03:45:35.079Z,3.81
2023-01-23T03:48:01.734Z,3.84
2023-01-23T03:50:28.329Z,3.89
2023-01-23T03:52:54.981Z,3.89
2023-01-23T03:55:21.630Z,3.89
2023-01-23T03:57:48.414Z,3.88
2023-01-23T04:00:16.912Z,3.88
2023-01-23T04:02:43.639Z,3.94
2023-01-23T04:05:10.554Z,3.95
2023-01-23T04:07:37.099Z,3.93
2023-01-23T04:10:03.813Z,3.93
2023-01-23T04:12:30.411Z,3.89
2023-01-23T04:14:57.158Z,3.87
2023-01-23T04:17:23.728Z,3.86
2023-01-23T04:19:50.258Z,3.85
2023-01-23T04:22:16.818Z,3.85
2023-01-23T04:24:43.343Z,3.85
2023-01-23T04:27:10.115Z,3.82
2023-01-23T04:29:36.696Z,3.85
2023-01-23T04:32:04.750Z,3.89
2023-01-23T04:34:31.474Z,3.91
2023-01-23T04:36:58.070Z,3.89
2023-01-23T04:39:24.691Z,3.89
2023-01-23T04:41:51.268Z,3.92
2023-01-23T04:44:20.713Z,3.93
2023-01-23T04:46:50.048Z,3.95
2023-01-23T04:49:18.744Z,3.99
2023-01-23T04:51:48.069Z,3.96
2023-01-23T04:54:15.621Z,3.96
2023-01-23T04:56:43.208Z,3.95
2023-01-23T04:59:09.966Z,3.96
2023-01-23T05:01:37.161Z,3.95
2023-01-23T05:04:04.521Z,3.95
2023-01-23T05:06:31.226Z,3.95
2023-01-23T05:08:58.166Z,3.96
2023-01-23T05:11:24.848Z,3.93
2023-01-23T05:13:51.463Z,3.94
2023-01-23T05:16:18.127Z,3.92
2023-01-23T05:18:44.717Z,3.89
2023-01-23T05:21:11.311Z,3.85
2023-01-23T05:23:37.928Z,3.87
2023-01-23T05:26:04.693Z,3.89
2023-01-23T05:28:31.275Z,3.93
2023-01-23T05:30:57.991Z,3.95
2023-01-23T05:33:24.599Z,3.96
2023-01-23T05:35:51.183Z,3.95
2023-01-23T05:38:17.745Z,3.95
2023-01-23T05:40:44.388Z,3.98
2023-01-23T05:43:17.299Z,3.98
2023-01-23T05:45:43.916Z,3.96
2023-01-23T05:48:10.574Z,3.95
2023-01-23T05:50:37.154Z,3.94
2023-01-23T05:53:04.389Z,4.00
2023-01-23T05:55:31.084Z,4.07
2023-01-23T05:57:57.717Z,4.09
2023-01-23T06:00:24.411Z,4.11
2023-01-23T06:02:51.046Z,4.14
2023-01-23T06:05:17.798Z,4.16
2023-01-23T06:07:44.446Z,4.18
2023-01-23T06:10:11.264Z,4.18
2023-01-23T06:12:37.850Z,4.18
2023-01-23T06:15:05.103Z,4.21
2023-01-23T06:17:31.687Z,4.24
2023-01-23T06:19:58.765Z,4.25
2023-01-23T06:22:25.383Z,4.26
2023-01-23T06:24:52.742Z,4.26
2023-01-23T06:27:19.554Z,4.26
2023-01-23T06:29:46.212Z,4.26
2023-01-23T06:32:12.889Z,4.28
2023-01-23T06:34:39.707Z,4.31
2023-01-23T06:37:06.350Z,4.33
2023-01-23T06:39:34.283Z,4.33
2023-01-23T06:42:01.028Z,4.36
2023-01-23T06:44:27.922Z,4.36
2023-01-23T06:46:54.462Z,4.41
2023-01-23T06:49:21.249Z,4.42
2023-01-23T06:51:47.820Z,4.44
2023-01-23T06:54:14.471Z,4.45
2023-01-23T06:56:41.058Z,4.47
2023-01-23T06:59:07.758Z,4.51
2023-01-23T07:01:34.364Z,4.53
2023-01-23T07:04:01.063Z,4.56
2023-01-23T07:06:27.614Z,4.61
2023-01-23T07:08:54.205Z,4.66
2023-01-23T07:11:20.883Z,4.70
2023-01-23T07:13:47.462Z,4.74
2023-01-23T07:16:14.102Z,4.78
2023-01-23T07:18:40.749Z,4.83
2023-01-23T07:21:07.580Z,4.91
2023-01-23T07:23:34.625Z,4.96
2023-01-23T07:26:03.734Z,5.03
2023-01-23T07:28:30.870Z,5.12
2023-01-23T07:30:59.089Z,5.18
2023-01-23T07:33:25.956Z,5.24
2023-01-23T07:35:52.600Z,5.31
2023-01-23T07:38:19.702Z,5.39
2023-01-23T07:40:46.313Z,5.46
2023-01-23T07:43:13.015Z,5.54
2023-01-23T07:45:39.609Z,5.63
2023-01-23T07:48:06.214Z,5.70
2023-01-23T07:50:32.853Z,5.77
2023-01-23T07:52:59.434Z,5.87
2023-01-23T07:55:25.981Z,5.94
2023-01-23T07:57:52.559Z,6.04
2023-01-23T08:00:20.043Z,6.14
2023-01-23T08:02:47.778Z,6.23
2023-01-23T08:05:14.415Z,6.37
2023-01-23T08:07:41.030Z,6.49
2023-01-23T08:10:08.994Z,6.55
2023-01-23T08:12:35.536Z,6.64
2023-01-23T08:15:02.288Z,6.75
2023-01-23T08:17:28.876Z,6.81
2023-01-23T08:19:55.519Z,6.91
2023-01-23T08:22:22.387Z,7.03
2023-01-23T08:24:49.098Z,7.11
2023-01-23T08:27:15.828Z,7.24
2023-01-23T08:29:42.568Z,7.37
2023-01-23T08:32:09.325Z,7.49
2023-01-23T08:34:35.931Z,7.55
2023-01-23T08:37:02.466Z,7.64
2023-01-23T08:39:29.139Z,7.73
2023-01-23T08:41:55.695Z,7.76
2023-01-23T08:44:23.369Z,7.73
2023-01-23T08:46:49.979Z,7.76
2023-01-23T08:49:19.578Z,7.78
2023-01-23T08:51:46.722Z,7.80
2023-01-23T08:54:13.390Z,7.80
2023-01-23T08:56:41.258Z,7.81
2023-01-23T08:59:07.918Z,7.79
2023-01-23T09:01:34.636Z,7.80
2023-01-23T09:04:01.224Z,7.84
2023-01-23T09:06:27.839Z,7.90
2023-01-23T09:08:54.512Z,7.95
2023-01-23T09:11:22.793Z,7.99
2023-01-23T09:13:51.210Z,8.06
2023-01-23T09:16:19.615Z,8.16
2023-01-23T09:18:46.340Z,8.32
2023-01-23T09:21:17.468Z,8.48
2023-01-23T09:23:44.248Z,8.72
2023-01-23T09:26:12.917Z,8.92
2023-01-23T09:28:42.155Z,9.04
2023-01-23T09:31:12.497Z,9.09
2023-01-23T09:33:41.001Z,9.31
2023-01-23T09:36:08.364Z,9.68
2023-01-23T09:38:35.448Z,10.00
2023-01-23T09:41:16.337Z,10.48
2023-01-23T09:43:45.946Z,11.01
2023-01-23T09:46:24.773Z,11.49
2023-01-23T09:48:59.319Z,11.86
2023-01-23T09:51:29.098Z,12.29
2023-01-23T09:54:04.681Z,13.17
2023-01-23T09:56:36.363Z,14.25
2023-01-23T09:59:17.000Z,15.22
2023-01-23T10:01:43.926Z,15.71
2023-01-23T10:04:13.283Z,16.58
2023-01-23T10:06:57.313Z,17.43
2023-01-23T10:09:52.698Z,17.61
2023-01-23T10:13:08.018Z,17.71
2023-01-23T10:16:00.640Z,17.20
2023-01-23T10:18:58.000Z,16.89
2023-01-23T10:21:34.514Z,17.24
2023-01-23T10:24:22.938Z,18.09
2023-01-23T10:26:50.611Z,18.69
2023-01-23T10:29:38.960Z,19.32
2023-01-23T10:32:25.743Z,19.87
2023-01-23T10:34:56.070Z,19.88
2023-01-23T10:38:01.779Z,19.80
2023-01-23T10:40:47.728Z,20.23
2023-01-23T10:43:23.407Z,20.18
2023-01-23T10:45:50.388Z,20.07
2023-01-23T10:48:41.509Z,20.26
2023-01-23T10:51:44.829Z,20.14
2023-01-23T10:54:16.940Z,19.67
2023-01-23T10:56:52.410Z,19.59
2023-01-23T10:59:20.895Z,18.73
2023-01-23T11:01:58.214Z,18.27
2023-01-23T11:04:27.734Z,18.35
2023-01-23T11:07:08.441Z,18.74
2023-01-23T11:09:50.330Z,19.08
2023-01-23T11:12:21.707Z,19.25
2023-01-23T11:14:48.443Z,19.15
2023-01-23T11:17:32.555Z,19.20
2023-01-23T11:19:59.870Z,19.34
2023-01-23T11:22:32.872Z,19.61
2023-01-23T11:24:59.993Z,20.17
2023-01-23T11:27:31.219Z,20.47
2023-01-23T11:30:46.064Z,20.03
2023-01-23T11:33:28.304Z,20.00
2023-01-23T11:36:13.250Z,19.74
2023-01-23T11:38:51.991Z,19.39
2023-01-23T11:41:25.015Z,19.26
2023-01-23T11:43:52.906Z,19.31
2023-01-23T11:46:35.072Z,18.94
2023-01-23T11:49:19.867Z,19.00
2023-01-23T11:51:49.441Z,18.91
2023-01-23T11:54:36.700Z,18.80
2023-01-23T11:57:26.023Z,18.59
2023-01-23T11:59:55.163Z,19.24
2023-01-23T12:02:41.240Z,20.10
2023-01-23T12:05:27.576Z,20.55
2023-01-23T12:08:02.806Z,20.40
2023-01-23T12:10:40.018Z,19.79
2023-01-23T12:13:42.129Z,19.64
2023-01-23T12:16:16.503Z,20.03
2023-01-23T12:18:48.645Z,20.21
2023-01-23T12:21:20.827Z,20.32
2023-01-23T12:23:50.086Z,19.98
2023-01-23T12:26:19.806Z,20.32
2023-01-23T12:29:15.203Z,20.44
2023-01-23T12:32:14.237Z,20.11
2023-01-23T12:35:06.599Z,20.23
2023-01-23T12:38:03.962Z,19.78
2023-01-23T12:40:48.500Z,19.80
2023-01-23T12:43:35.068Z,19.78
2023-01-23T12:46:08.475Z,20.14
2023-01-23T12:49:13.967Z,20.18
2023-01-23T12:51:45.995Z,20.31
2023-01-23T12:54:32.859Z,20.82
2023-01-23T12:57:00.648Z,21.02
2023-01-23T12:59:37.254Z,21.62
2023-01-23T13:02:14.210Z,22.00
2023-01-23T13:05:04.037Z,22.12
2023-01-23T13:07:56.935Z,21.85
2023-01-23T13:10:52.934Z,21.69
2023-01-23T13:13:20.689Z,21.15
2023-01-23T13:16:09.247Z,21.23
2023-01-23T13:18:56.973Z,21.06
2023-01-23T13:21:42.383Z,20.91
2023-01-23T13:24:40.652Z,21.08
2023-01-23T13:27:47.890Z,20.85
2023-01-23T13:30:26.669Z,20.31
2023-01-23T13:32:57.807Z,19.91
2023-01-23T13:35:39.596Z,19.53
2023-01-23T13:38:21.615Z,19.43
2023-01-23T13:41:11.775Z,18.70
2023-01-23T13:43:52.409Z,18.10
2023-01-23T14:24:43.920Z,14.53
2023-01-23T14:27:44.497Z,14.58
2023-01-23T14:30:23.946Z,14.53
2023-01-23T14:32:50.600Z,14.42
2023-01-23T14:35:31.086Z,14.44
2023-01-23T14:38:05.137Z,14.65
2023-01-23T14:40:43.505Z,14.55
2023-01-23T14:43:24.006Z,14.43
2023-01-23T14:45:59.773Z,14.40
2023-01-23T14:48:27.697Z,14.12
2023-01-23T14:51:21.814Z,13.84
2023-01-23T14:54:23.089Z,13.67
2023-01-23T14:56:51.171Z,13.50
2023-01-23T14:59:29.913Z,13.21
2023-01-23T15:01:59.933Z,12.98
2023-01-23T15:04:29.170Z,12.80
2023-01-23T15:07:01.071Z,12.68
2023-01-23T15:09:31.500Z,12.52
2023-01-23T15:12:16.167Z,12.30
2023-01-23T15:14:43.204Z,12.12
2023-01-23T15:17:20.951Z,12.01
2023-01-23T15:19:55.397Z,11.83
2023-01-23T15:22:25.945Z,11.68
2023-01-23T15:24:52.843Z,11.60
2023-01-23T15:27:33.254Z,11.53
2023-01-23T15:30:48.632Z,11.44
2023-01-23T15:33:31.047Z,11.35
2023-01-23T15:36:06.938Z,11.25
2023-01-23T15:38:34.183Z,11.22
2023-01-23T15:41:01.037Z,11.13
2023-01-23T15:43:27.627Z,11.09
2023-01-23T15:45:55.753Z,11.03
2023-01-23T15:48:24.835Z,10.96
2023-01-23T15:50:51.487Z,10.93
2023-01-23T15:53:18.557Z,10.86
2023-01-23T15:55:45.558Z,10.85
2023-01-23T15:58:15.002Z,10.79
2023-01-23T16:00:41.888Z,10.76
2023-01-23T16:03:08.684Z,10.67
2023-01-23T16:05:37.312Z,10.59
2023-01-23T16:08:06.380Z,10.55
2023-01-23T16:10:38.027Z,10.50
2023-01-23T16:13:05.284Z,10.43
2023-01-23T16:15:33.183Z,10.39
2023-01-23T16:18:00.864Z,10.32
2023-01-23T16:20:31.372Z,10.24
2023-01-23T16:23:01.915Z,10.20
2023-01-23T16:25:44.604Z,10.15
2023-01-23T16:28:14.089Z,10.11
2023-01-23T16:30:40.908Z,10.07
2023-01-23T16:33:07.743Z,10.01
2023-01-23T16:35:34.561Z,9.96
2023-01-23T16:38:01.270Z,9.92
2023-01-23T16:40:30.774Z,9.92
2023-01-23T16:42:58.156Z,9.91
2023-01-23T16:45:27.444Z,9.88
2023-01-23T16:47:54.390Z,9.85
2023-01-23T16:50:32.015Z,9.83
2023-01-23T16:53:05.502Z,9.79
2023-01-23T16:55:39.099Z,9.76
2023-01-23T16:58:07.803Z,9.73
2023-01-23T17:00:35.629Z,9.69
2023-01-23T17:03:07.915Z,9.65
2023-01-23T17:05:34.566Z,9.61
2023-01-23T17:08:01.310Z,9.58
2023-01-23T17:10:41.246Z,9.56
2023-01-23T17:13:14.005Z,9.49
2023-01-23T17:15:41.053Z,9.41
2023-01-23T17:18:32.620Z,9.33
2023-01-23T17:20:59.437Z,9.30
2023-01-23T17:23:26.312Z,9.26
2023-01-23T17:26:00.684Z,9.25
2023-01-23T17:28:28.149Z,9.22
2023-01-23T17:30:55.357Z,9.20
2023-01-23T17:33:25.003Z,9.20
2023-01-23T17:35:52.728Z,9.23
2023-01-23T17:38:22.935Z,9.21
2023-01-23T17:40:50.120Z,9.17
2023-01-23T17:43:19.213Z,9.09
2023-01-23T17:45:48.542Z,9.02
2023-01-23T17:48:17.723Z,8.99
2023-01-23T17:50:46.465Z,8.95
2023-01-23T17:53:15.890Z,8.92
2023-01-23T17:55:46.591Z,8.89
2023-01-23T17:58:14.235Z,8.84
2023-01-23T18:00:42.804Z,8.85
2023-01-23T18:03:14.138Z,8.83
2023-01-23T18:05:40.901Z,8.88
2023-01-23T18:08:10.251Z,8.89
2023-01-23T18:10:37.592Z,8.89
2023-01-23T18:13:37.006Z,8.83
2023-01-23T18:16:22.699Z,8.81
2023-01-23T18:18:57.554Z,8.80
2023-01-23T18:21:24.363Z,8.76
2023-01-23T18:23:51.256Z,8.72
2023-01-23T18:26:38.434Z,8.70
2023-01-23T18:29:23.133Z,8.72
2023-01-23T18:31:49.742Z,8.73
2023-01-23T18:34:47.251Z,8.70
2023-01-23T18:37:36.281Z,8.64
2023-01-23T18:40:21.279Z,8.64
2023-01-23T18:42:57.599Z,8.64
2023-01-23T18:45:27.517Z,8.67
2023-01-23T18:47:54.940Z,8.66
2023-01-23T18:50:27.003Z,8.63
2023-01-23T18:53:30.390Z,8.63
2023-01-23T18:56:23.106Z,8.56
2023-01-23T18:59:06.247Z,8.56
2023-01-23T19:02:03.557Z,8.52
2023-01-23T19:04:49.781Z,8.49
2023-01-23T19:07:18.872Z,8.51
2023-01-23T19:09:47.300Z,8.49
2023-01-23T19:12:52.168Z,8.48
2023-01-23T19:15:28.954Z,8.43
2023-01-23T19:18:40.804Z,8.32
2023-01-23T19:21:25.057Z,8.26
2023-01-23T19:24:02.874Z,8.22
2023-01-23T19:26:33.109Z,8.15
2023-01-23T19:29:15.521Z,8.10
2023-01-23T19:32:03.062Z,8.02
2023-01-23T19:34:30.543Z,7.99
2023-01-23T19:36:57.125Z,7.93
2023-01-23T19:39:23.739Z,7.96
2023-01-23T19:41:50.711Z,7.97
2023-01-23T19:44:19.687Z,7.95
2023-01-23T19:46:46.691Z,7.89
2023-01-23T19:49:13.899Z,7.86
2023-01-23T19:51:43.329Z,7.84
2023-01-23T19:54:14.449Z,7.83
2023-01-23T19:56:42.279Z,7.84
2023-01-23T19:59:09.134Z,7.85
2023-01-23T20:01:40.108Z,7.81
2023-01-23T20:04:11.928Z,7.78
2023-01-23T20:06:40.523Z,7.71
2023-01-23T20:09:08.605Z,7.59
2023-01-23T20:11:36.184Z,7.51
2023-01-23T20:14:03.633Z,7.49
2023-01-23T20:16:30.415Z,7.47
2023-01-23T20:18:57.134Z,7.36
2023-01-23T20:21:25.187Z,7.29
2023-01-23T20:23:52.282Z,7.24
2023-01-23T20:26:21.113Z,7.21
2023-01-23T20:28:49.736Z,7.17
2023-01-23T20:31:17.269Z,7.10
2023-01-23T20:33:44.035Z,6.97
2023-01-23T20:36:11.932Z,6.92
2023-01-23T20:38:39.687Z,6.89
2023-01-23T20:41:08.515Z,6.91
2023-01-23T20:43:35.339Z,6.91
2023-01-23T20:46:06.908Z,6.88
2023-01-23T20:48:40.176Z,6.82
2023-01-23T20:51:09.654Z,6.79
2023-01-23T20:53:39.647Z,6.75
2023-01-23T20:56:09.525Z,6.69
2023-01-23T20:58:56.797Z,6.63
2023-01-23T21:01:26.361Z,6.58
2023-01-23T21:03:53.011Z,6.54
2023-01-23T21:06:20.060Z,6.52
2023-01-23T21:08:47.221Z,6.57
2023-01-23T21:11:19.335Z,6.62
2023-01-23T21:13:51.220Z,6.63
2023-01-23T21:16:18.416Z,6.60
2023-01-23T21:18:46.888Z,6.55
2023-01-23T21:21:16.029Z,6.55
2023-01-23T21:23:43.498Z,6.55
2023-01-23T21:26:10.129Z,6.59
2023-01-23T21:28:36.864Z,6.58
2023-01-23T21:31:30.606Z,6.54
2023-01-23T21:33:59.334Z,6.54
2023-01-23T21:36:25.960Z,6.52
2023-01-23T21:38:53.742Z,6.53
2023-01-23T21:41:21.564Z,6.56
2023-01-23T21:43:48.360Z,6.54
2023-01-23T21:46:15.528Z,6.52
2023-01-23T21:48:42.170Z,6.57
2023-01-23T21:51:14.377Z,6.61
2023-01-23T21:53:43.128Z,6.65
2023-01-23T21:56:10.844Z,6.60
2023-01-23T21:58:37.714Z,6.58
2023-01-23T22:01:25.603Z,6.55
2023-01-23T22:03:52.706Z,6.54
2023-01-23T22:06:19.757Z,6.55
2023-01-23T22:08:46.388Z,6.54
2023-01-23T22:11:13.027Z,6.55
2023-01-23T22:13:39.920Z,6.55
2023-01-23T22:16:07.011Z,6.53
2023-01-23T22:18:34.174Z,6.52
2023-01-23T22:21:03.205Z,6.51
2023-01-23T22:23:30.148Z,6.51
2023-01-23T22:25:59.331Z,6.48
2023-01-23T22:28:26.404Z,6.47
2023-01-23T22:30:53.083Z,6.47
2023-01-23T22:33:20.378Z,6.48
2023-01-23T22:35:48.265Z,6.45
2023-01-23T22:38:16.160Z,6.46
2023-01-23T22:40:43.152Z,6.44
2023-01-23T22:43:10.303Z,6.42
2023-01-23T22:45:36.979Z,6.41
2023-01-23T22:48:03.622Z,6.43
2023-01-23T22:50:30.240Z,6.42
2023-01-23T22:52:56.768Z,6.42
2023-01-23T22:55:23.737Z,6.41
2023-01-23T22:57:52.928Z,6.37
2023-01-23T23:00:20.244Z,6.33
2023-01-23T23:02:47.062Z,6.32
2023-01-23T23:05:13.952Z,6.27
2023-01-23T23:07:40.689Z,6.24
2023-01-23T23:10:09.285Z,6.22
2023-01-23T23:12:35.874Z,6.18
2023-01-23T23:15:03.081Z,6.17
2023-01-23T23:17:30.482Z,6.14
2023-01-23T23:19:57.042Z,6.10
2023-01-23T23:22:23.702Z,6.05
2023-01-23T23:24:50.244Z,5.99
2023-01-23T23:27:16.907Z,5.95
2023-01-23T23:29:43.433Z,5.91
2023-01-23T23:32:10.300Z,5.89
2023-01-23T23:34:37.426Z,5.86
2023-01-23T23:37:04.626Z,5.81
2023-01-23T23:39:31.194Z,5.75
2023-01-23T23:41:58.675Z,5.71
2023-01-23T23:44:25.370Z,5.64
2023-01-23T23:46:51.961Z,5.59
2023-01-23T23:49:18.558Z,5.56
2023-01-23T23:51:45.135Z,5.51
2023-01-23T23:54:11.908Z,5.47
2023-01-23T23:56:38.454Z,5.43
2023-01-23T23:59:05.097Z,5.37
